createdAt,value
2019-05-03T05:24:25.959Z,1003.37
2019-05-03T05:25:26.085Z,1003.43
2019-05-03T05:26:25.983Z,1003.39
2019-05-03T05:27:26.212Z,1003.46
2019-05-03T05:28:26.012Z,1003.54
2019-05-03T05:29:26.115Z,1003.84
2019-05-03T05:30:26.153Z,1003.74
2019-05-03T05:31:26.084Z,1004.02
2019-05-03T05:32:26.013Z,1004.01
2019-05-03T05:33:26.253Z,1004.02
2019-05-03T05:34:26.211Z,1004.03
2019-05-03T05:35:26.006Z,1004.03
2019-05-03T05:36:26.029Z,1004.13
2019-05-03T05:37:26.024Z,1004.22
2019-05-03T05:38:26.098Z,1004.35
2019-05-03T05:39:26.012Z,1004.49
2019-05-03T05:40:26.047Z,1004.48
2019-05-03T05:41:26.148Z,1004.41
2019-05-03T05:42:26.057Z,1004.29
2019-05-03T05:43:26.169Z,1004.30
2019-05-03T05:44:26.185Z,1004.29
2019-05-03T05:45:26.198Z,1004.47
2019-05-03T05:46:26.625Z,1004.40
2019-05-03T05:47:26.067Z,1004.39
2019-05-03T05:48:26.200Z,1004.37
2019-05-03T05:49:26.326Z,1004.50
2019-05-03T05:50:26.350Z,1004.34
2019-05-03T05:51:26.122Z,1004.10
2019-05-03T05:52:26.075Z,1004.06
2019-05-03T05:53:26.105Z,1003.84
2019-05-03T05:54:26.087Z,1003.94
2019-05-03T05:55:26.078Z,1004.07
2019-05-03T05:56:26.107Z,1004.10
2019-05-03T05:57:26.131Z,1004.23
2019-05-03T05:58:26.124Z,1004.12
2019-05-03T05:59:26.161Z,1004.35
2019-05-03T06:00:26.147Z,1004.54
2019-05-03T06:01:26.130Z,1004.64
2019-05-03T06:02:26.170Z,1004.58
2019-05-03T06:03:26.209Z,1004.68
2019-05-03T06:04:26.169Z,1004.60
2019-05-03T06:05:26.171Z,1004.63
2019-05-03T06:06:26.183Z,1004.59
2019-05-03T06:07:26.199Z,1004.60
2019-05-03T06:08:26.207Z,1004.68
2019-05-03T06:09:26.242Z,1004.73
2019-05-03T06:10:26.246Z,1004.68
2019-05-03T06:11:26.268Z,1004.29
2019-05-03T06:12:26.243Z,1004.66
2019-05-03T06:13:26.476Z,1004.59
2019-05-03T06:14:26.298Z,1004.58
2019-05-03T06:15:26.787Z,1004.66
2019-05-03T06:16:26.278Z,1004.71
2019-05-03T06:17:26.287Z,1004.15
2019-05-03T06:18:26.312Z,1004.53
2019-05-03T06:19:26.340Z,1004.66
2019-05-03T06:20:26.395Z,1004.65
2019-05-03T06:21:26.345Z,1004.61
2019-05-03T06:22:26.383Z,1004.47
2019-05-03T06:23:26.356Z,1004.14
2019-05-03T06:24:26.389Z,1004.39
2019-05-03T06:25:26.755Z,1004.43
2019-05-03T06:26:26.397Z,1004.04
2019-05-03T06:27:26.425Z,1004.59
2019-05-03T06:28:26.414Z,1004.45
2019-05-03T06:29:26.437Z,1004.64
2019-05-03T06:30:26.416Z,1004.14
2019-05-03T06:31:26.489Z,1004.48
2019-05-03T06:32:26.430Z,1004.44
2019-05-03T06:33:26.475Z,1004.17
2019-05-03T06:34:26.443Z,1004.16
2019-05-03T06:35:26.466Z,1004.14
2019-05-03T06:36:26.471Z,1004.20
2019-05-03T06:37:26.513Z,1004.07
2019-05-03T06:38:26.523Z,1004.18
2019-05-03T06:39:26.532Z,1004.14
2019-05-03T06:40:26.539Z,1004.16
2019-05-03T06:41:26.531Z,1004.02
2019-05-03T06:42:26.552Z,1003.97
2019-05-03T06:43:26.554Z,1003.97
2019-05-03T06:44:28.617Z,1004.04
2019-05-03T06:45:26.568Z,1004.02
2019-05-03T06:46:30.263Z,1003.95
2019-05-03T06:47:28.536Z,1003.95
2019-05-03T06:48:28.139Z,1004.03
2019-05-03T06:49:26.651Z,1004.10
2019-05-03T06:50:28.930Z,1004.11
2019-05-03T06:51:26.643Z,1004.10
2019-05-03T06:52:29.322Z,1004.06
2019-05-03T06:53:26.698Z,1004.07
2019-05-03T06:54:29.867Z,1004.11
2019-05-03T06:55:26.747Z,1004.10
2019-05-03T06:56:29.080Z,1004.12
2019-05-03T06:57:26.791Z,1004.11
2019-05-03T06:58:33.211Z,1004.09
2019-05-03T06:59:26.692Z,1004.06
2019-05-03T07:00:26.706Z,1004.19
2019-05-03T07:01:26.779Z,1004.27
2019-05-03T07:02:28.555Z,1004.19
2019-05-03T07:03:26.747Z,1004.21
2019-05-03T07:04:26.733Z,1004.19
2019-05-03T07:05:26.740Z,1004.28
2019-05-03T07:06:34.570Z,1004.33
2019-05-03T07:07:28.035Z,1004.21
2019-05-03T07:08:26.869Z,1004.20
2019-05-03T07:09:26.785Z,1004.28
2019-05-03T07:10:26.884Z,1004.23
2019-05-03T07:11:26.860Z,1004.19
2019-05-03T07:12:26.916Z,1004.27
2019-05-03T07:13:26.823Z,1004.30
2019-05-03T07:14:27.150Z,1004.36
2019-05-03T07:15:26.801Z,1004.26
2019-05-03T07:16:27.118Z,1004.25
2019-05-03T07:17:26.831Z,1004.18
2019-05-03T07:18:26.924Z,1004.30
2019-05-03T07:19:26.847Z,1004.25
2019-05-03T07:20:26.870Z,1004.32
2019-05-03T07:21:26.880Z,1004.19
2019-05-03T07:22:26.862Z,1004.19
2019-05-03T07:23:26.859Z,1004.23
2019-05-03T07:24:26.930Z,1004.24
2019-05-03T07:25:26.901Z,1004.28
2019-05-03T07:26:26.881Z,1004.14
2019-05-03T07:27:26.934Z,1004.17
2019-05-03T07:28:26.923Z,1004.10
2019-05-03T07:29:26.941Z,1004.20
2019-05-03T07:30:26.918Z,1004.22
2019-05-03T07:31:26.932Z,1004.13
2019-05-03T07:32:26.934Z,1004.17
2019-05-03T07:33:26.958Z,1004.21
2019-05-03T07:34:27.001Z,1004.26
2019-05-03T07:35:26.973Z,1004.18
2019-05-03T07:36:28.322Z,1004.18
2019-05-03T07:37:26.967Z,1004.18
2019-05-03T07:38:26.990Z,1004.24
2019-05-03T07:39:26.985Z,1004.15
2019-05-03T07:40:27.019Z,1004.07
2019-05-03T07:41:27.315Z,1004.07
2019-05-03T07:42:26.994Z,1004.14
2019-05-03T07:43:27.029Z,1004.14
2019-05-03T07:44:27.013Z,1004.20
2019-05-03T07:45:27.076Z,1004.14
2019-05-03T07:46:27.062Z,1004.11
2019-05-03T07:47:27.029Z,1004.18
2019-05-03T07:48:27.121Z,1004.13
2019-05-03T07:49:27.049Z,1004.10
2019-05-03T07:50:27.102Z,1004.15
2019-05-03T07:51:27.116Z,1004.17
2019-05-03T07:52:27.115Z,1004.33
2019-05-03T07:53:27.123Z,1004.17
2019-05-03T07:54:27.106Z,1004.38
2019-05-03T07:55:27.098Z,1004.24
2019-05-03T07:56:27.130Z,1004.18
2019-05-03T07:57:27.110Z,1004.30
2019-05-03T07:58:27.163Z,1004.21
2019-05-03T07:59:27.146Z,1004.17
2019-05-03T08:00:27.130Z,1004.18
2019-05-03T08:01:27.196Z,1004.11
2019-05-03T08:02:27.622Z,1004.16
2019-05-03T08:03:27.147Z,1004.13
2019-05-03T08:04:27.150Z,1004.10
2019-05-03T08:05:27.189Z,1004.16
2019-05-03T08:06:27.230Z,1004.18
2019-05-03T08:07:27.173Z,1004.28
2019-05-03T08:08:27.197Z,1004.28
2019-05-03T08:09:27.212Z,1004.21
2019-05-03T08:10:27.244Z,1004.19
2019-05-03T08:11:27.198Z,1004.10
2019-05-03T08:12:27.260Z,1004.22
2019-05-03T08:13:27.272Z,1004.19
2019-05-03T08:14:27.218Z,1004.17
2019-05-03T08:15:27.235Z,1004.18
2019-05-03T08:16:27.252Z,1004.19
2019-05-03T08:17:27.303Z,1004.27
2019-05-03T08:18:27.281Z,1004.28
2019-05-03T08:19:27.296Z,1004.18
2019-05-03T08:20:27.327Z,1004.17
2019-05-03T08:21:28.496Z,1004.26
2019-05-03T08:22:27.282Z,1004.11
2019-05-03T08:23:30.191Z,1004.25
2019-05-03T08:24:27.324Z,1004.33
2019-05-03T08:25:27.298Z,1004.28
2019-05-03T08:26:27.311Z,1004.27
2019-05-03T08:27:27.370Z,1004.28
2019-05-03T08:28:27.314Z,1004.23
2019-05-03T08:29:27.329Z,1004.24
2019-05-03T08:30:27.390Z,1004.22
2019-05-03T08:31:27.368Z,1004.27
2019-05-03T08:32:27.349Z,1004.27
2019-05-03T08:33:27.394Z,1004.32
2019-05-03T08:34:27.367Z,1004.33
2019-05-03T08:35:27.387Z,1004.21
2019-05-03T08:36:27.377Z,1004.27
2019-05-03T08:37:28.098Z,1004.21
2019-05-03T08:38:27.439Z,1004.15
2019-05-03T08:39:27.407Z,1004.14
2019-05-03T08:40:27.408Z,1004.22
2019-05-03T08:41:27.404Z,1004.20
2019-05-03T08:42:27.479Z,1004.32
2019-05-03T08:43:27.498Z,1004.21
2019-05-03T08:44:27.443Z,1004.23
2019-05-03T08:45:27.443Z,1004.31
2019-05-03T08:46:27.444Z,1004.16
2019-05-03T08:47:27.453Z,1004.20
2019-05-03T08:48:27.467Z,1004.40
2019-05-03T08:49:27.535Z,1004.26
2019-05-03T08:50:27.485Z,1004.29
2019-05-03T08:51:27.472Z,1004.23
2019-05-03T08:52:27.496Z,1004.20
2019-05-03T08:53:27.540Z,1004.28
2019-05-03T08:54:27.586Z,1004.30
2019-05-03T08:55:27.514Z,1004.19
2019-05-03T08:56:27.550Z,1004.18
2019-05-03T08:57:27.537Z,1004.15
2019-05-03T08:58:27.529Z,1004.12
2019-05-03T08:59:32.292Z,1004.23
2019-05-03T09:00:27.602Z,1004.24
2019-05-03T09:01:27.548Z,1004.21
2019-05-03T09:02:27.552Z,1004.16
2019-05-03T09:03:27.600Z,1004.23
2019-05-03T09:04:36.062Z,1004.24
2019-05-03T09:05:27.602Z,1004.29
2019-05-03T09:06:27.575Z,1004.26
2019-05-03T09:07:27.591Z,1004.19
2019-05-03T09:08:27.606Z,1004.21
2019-05-03T09:09:27.690Z,1004.25
2019-05-03T09:10:27.649Z,1004.24
2019-05-03T09:11:33.614Z,1004.23
2019-05-03T09:12:27.700Z,1004.27
2019-05-03T09:13:27.630Z,1004.27
2019-05-03T09:14:38.743Z,1004.21
2019-05-03T09:15:27.689Z,1004.19
2019-05-03T09:16:27.689Z,1004.29
2019-05-03T09:17:27.655Z,1004.24
2019-05-03T09:18:27.716Z,1004.24
2019-05-03T09:19:27.677Z,1004.17
2019-05-03T09:20:27.678Z,1004.23
2019-05-03T09:21:27.740Z,1004.28
2019-05-03T09:22:27.693Z,1004.21
2019-05-03T09:23:28.656Z,1004.21
2019-05-03T09:24:27.707Z,1004.27
2019-05-03T09:25:27.757Z,1004.20
2019-05-03T09:26:29.470Z,1004.24
2019-05-03T09:27:27.761Z,1004.10
2019-05-03T09:28:29.216Z,1004.14
2019-05-03T09:29:40.003Z,1004.16
2019-05-03T09:30:27.800Z,1004.17
2019-05-03T09:31:27.762Z,1004.16
2019-05-03T09:32:27.865Z,1004.14
2019-05-03T09:33:27.779Z,1004.20
2019-05-03T09:34:27.778Z,1004.18
2019-05-03T09:35:32.823Z,1004.18
2019-05-03T09:36:27.821Z,1004.19
2019-05-03T09:37:27.791Z,1004.11
2019-05-03T09:38:27.836Z,1004.10
2019-05-03T09:39:27.822Z,1004.12
2019-05-03T09:40:27.856Z,1004.08
2019-05-03T09:41:31.142Z,1004.16
2019-05-03T09:42:27.917Z,1004.09
2019-05-03T09:43:27.874Z,1004.13
2019-05-03T09:44:27.934Z,1004.18
2019-05-03T09:45:27.859Z,1004.15
2019-05-03T09:46:27.890Z,1004.23
2019-05-03T09:47:28.020Z,1004.20
2019-05-03T09:48:27.906Z,1004.15
2019-05-03T09:49:27.878Z,1004.08
2019-05-03T09:50:27.938Z,1004.04
2019-05-03T09:51:27.939Z,1004.00
2019-05-03T09:52:27.912Z,1004.09
2019-05-03T09:53:27.913Z,1004.08
2019-05-03T09:54:27.927Z,1004.10
2019-05-03T09:55:27.953Z,1004.08
2019-05-03T09:56:27.969Z,1004.10
2019-05-03T09:57:27.957Z,1004.22
2019-05-03T09:58:27.950Z,1004.19
2019-05-03T09:59:27.999Z,1004.24
2019-05-03T10:00:27.993Z,1004.12
2019-05-03T10:01:27.988Z,1004.17
2019-05-03T10:02:28.010Z,1004.15
2019-05-03T10:03:28.141Z,1004.22
2019-05-03T10:04:27.998Z,1004.16
2019-05-03T10:05:28.001Z,1004.21
2019-05-03T10:06:28.028Z,1004.14
2019-05-03T10:07:28.040Z,1004.12
2019-05-03T10:08:28.027Z,1004.15
2019-05-03T10:09:28.067Z,1004.20
2019-05-03T10:10:28.072Z,1004.22
2019-05-03T10:11:28.053Z,1004.19
2019-05-03T10:12:28.077Z,1004.25
2019-05-03T10:13:28.085Z,1004.23
2019-05-03T10:14:28.107Z,1004.16
2019-05-03T10:15:28.117Z,1004.24
2019-05-03T10:16:28.096Z,1004.28
2019-05-03T10:17:28.110Z,1004.32
2019-05-03T10:18:28.110Z,1004.33
2019-05-03T10:19:37.004Z,1004.28
2019-05-03T10:20:28.125Z,1004.29
2019-05-03T10:21:28.118Z,1004.29
2019-05-03T10:22:28.140Z,1004.28
2019-05-03T10:23:28.168Z,1004.19
2019-05-03T10:24:28.137Z,1004.28
2019-05-03T10:25:28.185Z,1004.31
2019-05-03T10:26:28.240Z,1004.26
2019-05-03T10:27:28.171Z,1004.24
2019-05-03T10:28:28.197Z,1004.20
2019-05-03T10:29:28.169Z,1004.24
2019-05-03T10:30:28.209Z,1004.23
2019-05-03T10:31:28.312Z,1004.19
2019-05-03T10:32:28.211Z,1004.24
2019-05-03T10:33:28.224Z,1004.28
2019-05-03T10:34:28.223Z,1004.31
2019-05-03T10:35:28.235Z,1004.27
2019-05-03T10:36:28.722Z,1004.31
2019-05-03T10:37:28.230Z,1004.21
2019-05-03T10:38:28.252Z,1004.25
2019-05-03T10:39:28.350Z,1004.25
2019-05-03T10:40:28.272Z,1004.13
2019-05-03T10:41:28.323Z,1004.19
2019-05-03T10:42:28.278Z,1004.20
2019-05-03T10:43:28.316Z,1004.32
2019-05-03T10:44:28.317Z,1004.25
2019-05-03T10:45:28.322Z,1004.27
2019-05-03T10:46:28.308Z,1004.38
2019-05-03T10:47:28.358Z,1004.31
2019-05-03T10:48:28.433Z,1004.29
2019-05-03T10:49:28.353Z,1004.19
2019-05-03T10:50:28.346Z,1004.26
2019-05-03T10:51:28.374Z,1004.20
2019-05-03T10:52:28.416Z,1004.26
2019-05-03T10:53:28.371Z,1004.25
2019-05-03T10:54:28.379Z,1004.25
2019-05-03T10:55:28.396Z,1004.30
2019-05-03T10:56:28.396Z,1004.28
2019-05-03T10:57:28.399Z,1004.25
2019-05-03T10:58:28.462Z,1004.23
2019-05-03T10:59:28.412Z,1004.19
2019-05-03T11:00:50.215Z,1004.25
2019-05-03T11:01:28.463Z,1004.25
2019-05-03T11:02:28.462Z,1004.21
2019-05-03T11:03:28.494Z,1004.19
2019-05-03T11:04:28.485Z,1004.19
2019-05-03T11:05:28.468Z,1004.28
2019-05-03T11:06:28.465Z,1004.33
2019-05-03T11:07:28.494Z,1004.21
2019-05-03T11:08:28.533Z,1004.22
2019-05-03T11:09:28.544Z,1004.16
2019-05-03T11:10:28.496Z,1004.10
2019-05-03T11:11:28.543Z,1004.16
2019-05-03T11:12:28.512Z,1004.19
2019-05-03T11:13:28.557Z,1004.32
2019-05-03T11:14:28.530Z,1004.26
2019-05-03T11:15:28.575Z,1004.20
2019-05-03T11:16:28.574Z,1004.16
2019-05-03T11:17:28.561Z,1004.13
2019-05-03T11:18:28.593Z,1004.03
2019-05-03T11:19:28.573Z,1004.00
2019-05-03T11:20:32.022Z,1004.01
2019-05-03T11:21:31.077Z,1004.10
2019-05-03T11:22:28.597Z,1004.14
2019-05-03T11:23:28.624Z,1004.18
2019-05-03T11:24:28.670Z,1004.14
2019-05-03T11:25:28.631Z,1004.12
2019-05-03T11:26:28.644Z,1004.22
2019-05-03T11:27:28.658Z,1004.11
2019-05-03T11:28:28.658Z,1004.07
2019-05-03T11:29:28.662Z,1004.05
2019-05-03T11:30:28.690Z,1003.97
2019-05-03T11:31:28.700Z,1003.97
2019-05-03T11:32:28.707Z,1003.95
2019-05-03T11:33:28.695Z,1003.94
2019-05-03T11:34:28.704Z,1004.06
2019-05-03T11:35:28.702Z,1004.07
2019-05-03T11:36:31.523Z,1004.01
2019-05-03T11:37:28.716Z,1004.01
2019-05-03T11:38:28.724Z,1003.92
2019-05-03T11:39:28.779Z,1003.95
2019-05-03T11:40:28.752Z,1003.98
2019-05-03T11:41:32.516Z,1003.95
2019-05-03T11:42:28.784Z,1004.09
2019-05-03T11:43:28.780Z,1004.00
2019-05-03T11:44:28.799Z,1004.05
2019-05-03T11:45:28.815Z,1004.03
2019-05-03T11:46:28.800Z,1003.97
2019-05-03T11:47:28.846Z,1003.92
2019-05-03T11:48:28.831Z,1004.00
2019-05-03T11:49:28.837Z,1003.96
2019-05-03T11:50:28.851Z,1003.92
2019-05-03T11:51:28.858Z,1004.00
2019-05-03T11:52:28.873Z,1004.00
2019-05-03T11:53:28.883Z,1004.00
2019-05-03T11:54:28.851Z,1003.98
2019-05-03T11:55:28.856Z,1004.11
2019-05-03T11:56:28.882Z,1004.12
2019-05-03T11:57:28.908Z,1004.07
2019-05-03T11:58:28.921Z,1004.11
2019-05-03T11:59:29.293Z,1004.14
2019-05-03T12:00:28.913Z,1004.11
2019-05-03T12:01:28.919Z,1004.14
2019-05-03T12:02:29.051Z,1004.10
2019-05-03T12:03:29.976Z,1004.06
2019-05-03T12:04:28.940Z,1004.15
2019-05-03T12:05:28.941Z,1004.07
2019-05-03T12:06:28.973Z,1004.06
2019-05-03T12:07:38.536Z,1004.14
2019-05-03T12:08:28.995Z,1004.11
2019-05-03T12:09:28.998Z,1004.06
2019-05-03T12:10:46.757Z,1004.13
2019-05-03T12:11:29.008Z,1004.16
2019-05-03T12:12:29.531Z,1004.12
2019-05-03T12:13:29.078Z,1004.02
2019-05-03T12:14:29.009Z,1004.11
2019-05-03T12:15:29.029Z,1004.08
2019-05-03T12:17:10.378Z,1004.10
2019-05-03T12:17:29.933Z,1004.01
2019-05-03T12:18:29.204Z,1004.07
2019-05-03T12:19:31.566Z,1004.03
2019-05-03T12:20:30.577Z,1004.08
2019-05-03T12:21:30.275Z,1004.06
2019-05-03T12:22:29.723Z,1004.06
2019-05-03T12:23:31.557Z,1004.18
2019-05-03T12:24:29.654Z,1004.14
2019-05-03T12:25:29.669Z,1004.01
2019-05-03T12:26:40.580Z,1004.09
2019-05-03T12:27:29.128Z,1004.09
2019-05-03T12:28:29.161Z,1004.14
2019-05-03T12:29:29.180Z,1004.15
2019-05-03T12:30:29.303Z,1004.10
2019-05-03T12:31:37.092Z,1004.03
2019-05-03T12:32:29.267Z,1004.03
2019-05-03T12:33:29.266Z,1004.05
2019-05-03T12:34:29.227Z,1003.99
2019-05-03T12:35:29.285Z,1003.95
2019-05-03T12:36:29.242Z,1003.97
2019-05-03T12:37:29.227Z,1003.96
2019-05-03T12:38:29.233Z,1003.95
2019-05-03T12:39:30.637Z,1003.98
2019-05-03T12:40:29.267Z,1003.92
2019-05-03T12:41:29.263Z,1003.95
2019-05-03T12:42:29.297Z,1003.91
2019-05-03T12:43:29.270Z,1003.97
2019-05-03T12:44:29.273Z,1004.03
2019-05-03T12:45:29.283Z,1004.03
2019-05-03T12:46:29.345Z,1004.00
2019-05-03T12:47:29.295Z,1004.09
2019-05-03T12:48:29.302Z,1004.07
2019-05-03T12:49:29.322Z,1004.04
2019-05-03T12:50:29.394Z,1004.07
2019-05-03T12:51:29.397Z,1004.02
2019-05-03T12:52:30.060Z,1004.07
2019-05-03T12:53:29.354Z,1004.04
2019-05-03T12:54:29.447Z,1004.07
2019-05-03T12:55:29.357Z,1004.15
2019-05-03T12:56:32.819Z,1004.08
2019-05-03T12:57:29.430Z,1004.08
2019-05-03T12:58:29.434Z,1004.19
2019-05-03T12:59:29.426Z,1004.03
2019-05-03T13:00:29.398Z,1004.01
2019-05-03T13:01:40.953Z,1004.13
2019-05-03T13:02:29.486Z,1004.15
2019-05-03T13:03:29.430Z,1004.08
2019-05-03T13:04:29.490Z,1004.04
2019-05-03T13:05:29.575Z,1004.08
2019-05-03T13:06:29.449Z,1003.99
2019-05-03T13:07:29.697Z,1004.00
2019-05-03T13:08:29.462Z,1003.95
2019-05-03T13:09:29.520Z,1003.97
2019-05-03T13:10:29.520Z,1004.03
2019-05-03T13:11:29.716Z,1003.90
2019-05-03T13:12:29.504Z,1004.01
2019-05-03T13:13:29.533Z,1003.94
2019-05-03T13:14:29.545Z,1003.88
2019-05-03T13:15:29.553Z,1003.94
2019-05-03T13:16:29.545Z,1003.92
2019-05-03T13:17:29.618Z,1003.97
2019-05-03T13:18:29.579Z,1003.94
2019-05-03T13:19:29.684Z,1003.92
2019-05-03T13:20:29.633Z,1003.95
2019-05-03T13:21:29.668Z,1003.94
2019-05-03T13:22:29.599Z,1003.90
2019-05-03T13:23:29.606Z,1003.89
2019-05-03T13:24:29.599Z,1003.88
2019-05-03T13:25:29.622Z,1003.92
2019-05-03T13:26:29.652Z,1003.86
2019-05-03T13:27:29.642Z,1003.82
2019-05-03T13:28:29.649Z,1003.86
2019-05-03T13:29:29.633Z,1003.88
2019-05-03T13:30:29.645Z,1003.88
2019-05-03T13:31:29.691Z,1003.84
2019-05-03T13:32:29.665Z,1003.96
2019-05-03T13:33:29.705Z,1003.88
2019-05-03T13:34:29.704Z,1003.89
2019-05-03T13:35:29.687Z,1003.84
2019-05-03T13:36:29.748Z,1003.85
2019-05-03T13:37:29.713Z,1003.83
2019-05-03T13:38:29.713Z,1003.79
2019-05-03T13:39:29.740Z,1003.75
2019-05-03T13:40:29.733Z,1003.78
2019-05-03T13:41:29.795Z,1003.83
2019-05-03T13:42:29.800Z,1003.80
2019-05-03T13:43:29.771Z,1003.82
2019-05-03T13:44:29.800Z,1003.85
2019-05-03T13:45:29.840Z,1003.79
2019-05-03T13:46:29.805Z,1003.79
2019-05-03T13:47:29.822Z,1003.79
2019-05-03T13:48:41.636Z,1003.79
2019-05-03T13:49:29.844Z,1003.81
2019-05-03T13:50:29.854Z,1003.83
2019-05-03T13:51:29.858Z,1003.80
2019-05-03T13:52:29.898Z,1003.86
2019-05-03T13:53:29.846Z,1003.86
2019-05-03T13:54:29.858Z,1003.85
2019-05-03T13:55:29.846Z,1003.88
2019-05-03T13:56:29.874Z,1003.80
2019-05-03T13:57:29.897Z,1003.91
2019-05-03T13:58:29.939Z,1003.89
2019-05-03T13:59:29.886Z,1003.84
2019-05-03T14:00:29.881Z,1003.81
2019-05-03T14:01:29.905Z,1003.84
2019-05-03T14:02:29.990Z,1003.81
2019-05-03T14:03:29.914Z,1003.89
2019-05-03T14:04:29.962Z,1003.85
2019-05-03T14:05:29.922Z,1003.85
2019-05-03T14:06:33.360Z,1003.87
2019-05-03T14:07:29.953Z,1003.77
2019-05-03T14:08:29.970Z,1003.81
2019-05-03T14:09:30.019Z,1003.73
2019-05-03T14:10:29.980Z,1003.77
2019-05-03T14:11:29.985Z,1003.85
2019-05-03T14:12:29.992Z,1003.84
2019-05-03T14:13:30.062Z,1003.75
2019-05-03T14:14:30.014Z,1003.82
2019-05-03T14:15:30.008Z,1003.77
2019-05-03T14:16:30.042Z,1003.81
2019-05-03T14:17:30.043Z,1003.77
2019-05-03T14:18:30.063Z,1003.83
2019-05-03T14:19:30.039Z,1003.80
2019-05-03T14:20:30.096Z,1003.74
2019-05-03T14:21:30.099Z,1003.78
2019-05-03T14:22:30.064Z,1003.73
2019-05-03T14:23:30.088Z,1003.70
2019-05-03T14:24:30.144Z,1003.65
2019-05-03T14:25:30.101Z,1003.74
2019-05-03T14:26:30.093Z,1003.68
2019-05-03T14:27:30.136Z,1003.73
2019-05-03T14:28:30.143Z,1003.64
2019-05-03T14:29:30.177Z,1003.72
2019-05-03T14:30:30.135Z,1003.61
2019-05-03T14:31:30.153Z,1003.57
2019-05-03T14:32:30.242Z,1003.62
2019-05-03T14:33:30.182Z,1003.64
2019-05-03T14:34:30.192Z,1003.61
2019-05-03T14:35:30.199Z,1003.59
2019-05-03T14:36:30.228Z,1003.53
2019-05-03T14:37:30.211Z,1003.64
2019-05-03T14:38:30.218Z,1003.59
2019-05-03T14:39:30.250Z,1003.57
2019-05-03T14:40:30.464Z,1003.64
2019-05-03T14:41:30.253Z,1003.59
2019-05-03T14:42:30.225Z,1003.71
2019-05-03T14:43:30.281Z,1003.60
2019-05-03T14:44:30.274Z,1003.63
2019-05-03T14:45:30.306Z,1003.67
2019-05-03T14:46:33.312Z,1003.78
2019-05-03T14:47:30.305Z,1003.63
2019-05-03T14:48:30.277Z,1003.77
2019-05-03T14:49:30.309Z,1003.71
2019-05-03T14:50:30.311Z,1003.70
2019-05-03T14:51:30.323Z,1003.70
2019-05-03T14:52:30.360Z,1003.71
2019-05-03T14:53:30.366Z,1003.77
2019-05-03T14:54:30.331Z,1003.74
2019-05-03T14:55:30.366Z,1003.75
2019-05-03T14:56:30.432Z,1003.75
2019-05-03T14:57:30.360Z,1003.71
2019-05-03T14:58:30.375Z,1003.72
2019-05-03T14:59:30.408Z,1003.68
2019-05-03T15:00:30.390Z,1003.68
2019-05-03T15:01:30.415Z,1003.70
2019-05-03T15:02:42.462Z,1003.70
2019-05-03T15:03:30.838Z,1003.67
2019-05-03T15:04:30.455Z,1003.69
2019-05-03T15:05:30.440Z,1003.72
2019-05-03T15:06:30.419Z,1003.71
2019-05-03T15:07:30.437Z,1003.75
2019-05-03T15:08:30.501Z,1003.71
2019-05-03T15:09:30.469Z,1003.76
2019-05-03T15:10:30.523Z,1003.76
2019-05-03T15:11:30.512Z,1003.79
2019-05-03T15:12:30.555Z,1003.87
2019-05-03T15:13:30.912Z,1003.91
2019-05-03T15:14:30.626Z,1003.83
2019-05-03T15:15:30.501Z,1003.84
2019-05-03T15:16:30.488Z,1003.80
2019-05-03T15:17:30.534Z,1003.82
2019-05-03T15:18:30.545Z,1003.77
2019-05-03T15:19:30.601Z,1003.75
2019-05-03T15:20:30.524Z,1003.83
2019-05-03T15:21:30.683Z,1003.83
2019-05-03T15:22:30.540Z,1003.77
2019-05-03T15:23:30.561Z,1003.81
2019-05-03T15:24:30.742Z,1003.70
2019-05-03T15:25:30.563Z,1003.80
2019-05-03T15:26:30.555Z,1003.66
2019-05-03T15:27:30.597Z,1003.69
2019-05-03T15:28:30.591Z,1003.67
2019-05-03T15:29:30.793Z,1003.68
2019-05-03T15:30:30.669Z,1003.67
2019-05-03T15:31:30.599Z,1003.73
2019-05-03T15:32:30.694Z,1003.71
2019-05-03T15:33:30.617Z,1003.70
2019-05-03T15:34:30.639Z,1003.67
2019-05-03T15:35:30.721Z,1003.72
2019-05-03T15:36:30.866Z,1003.71
2019-05-03T15:37:30.637Z,1003.82
2019-05-03T15:38:30.650Z,1003.78
2019-05-03T15:39:30.732Z,1003.75
2019-05-03T15:40:30.661Z,1003.74
2019-05-03T15:41:30.733Z,1003.79
2019-05-03T15:42:30.676Z,1003.71
2019-05-03T15:43:30.695Z,1003.86
2019-05-03T15:44:30.684Z,1003.73
2019-05-03T15:45:30.698Z,1003.78
2019-05-03T15:46:30.750Z,1003.71
2019-05-03T15:47:30.713Z,1003.73
2019-05-03T15:48:30.726Z,1003.75
2019-05-03T15:49:30.749Z,1003.73
2019-05-03T15:50:30.753Z,1003.73
2019-05-03T15:51:30.766Z,1003.81
2019-05-03T15:52:30.762Z,1003.82
2019-05-03T15:53:30.775Z,1003.78
2019-05-03T15:54:30.767Z,1003.81
2019-05-03T15:55:30.761Z,1003.79
2019-05-03T15:56:30.779Z,1003.79
2019-05-03T15:57:30.784Z,1003.80
2019-05-03T15:58:30.811Z,1003.77
2019-05-03T15:59:30.793Z,1003.75
2019-05-03T16:00:31.230Z,1003.76
2019-05-03T16:01:30.825Z,1003.77
2019-05-03T16:02:30.854Z,1003.69
2019-05-03T16:03:30.844Z,1003.85
2019-05-03T16:04:30.852Z,1003.76
2019-05-03T16:05:31.046Z,1003.79
2019-05-03T16:06:30.844Z,1003.72
2019-05-03T16:07:30.859Z,1003.74
2019-05-03T16:08:30.948Z,1003.71
2019-05-03T16:09:30.894Z,1003.69
2019-05-03T16:10:31.764Z,1003.72
2019-05-03T16:11:31.004Z,1003.74
2019-05-03T16:12:30.912Z,1003.76
2019-05-03T16:13:31.052Z,1003.74
2019-05-03T16:14:30.982Z,1003.74
2019-05-03T16:15:30.926Z,1003.81
2019-05-03T16:16:30.910Z,1003.72
2019-05-03T16:17:30.924Z,1003.73
2019-05-03T16:18:30.999Z,1003.70
2019-05-03T16:19:30.933Z,1003.70
2019-05-03T16:20:30.944Z,1003.68
2019-05-03T16:21:31.078Z,1003.60
2019-05-03T16:22:30.983Z,1003.70
2019-05-03T16:23:30.954Z,1003.64
2019-05-03T16:24:30.999Z,1003.66
2019-05-03T16:25:30.999Z,1003.66
2019-05-03T16:26:31.001Z,1003.61
2019-05-03T16:27:30.988Z,1003.64
2019-05-03T16:28:31.023Z,1003.65
2019-05-03T16:29:31.095Z,1003.56
2019-05-03T16:30:31.023Z,1003.66
2019-05-03T16:31:31.018Z,1003.60
2019-05-03T16:32:31.049Z,1003.62
2019-05-03T16:33:31.067Z,1003.65
2019-05-03T16:34:31.053Z,1003.56
2019-05-03T16:35:31.055Z,1003.55
2019-05-03T16:36:31.077Z,1003.54
2019-05-03T16:37:31.075Z,1003.50
2019-05-03T16:38:31.061Z,1003.55
2019-05-03T16:39:31.094Z,1003.50
2019-05-03T16:40:31.194Z,1003.45
2019-05-03T16:41:31.146Z,1003.49
2019-05-03T16:42:31.405Z,1003.51
2019-05-03T16:43:31.119Z,1003.54
2019-05-03T16:44:31.120Z,1003.43
2019-05-03T16:45:31.126Z,1003.45
2019-05-03T16:46:31.117Z,1003.50
2019-05-03T16:47:31.220Z,1003.50
2019-05-03T16:48:31.134Z,1003.47
2019-05-03T16:49:31.155Z,1003.37
2019-05-03T16:50:31.167Z,1003.44
2019-05-03T16:51:31.183Z,1003.43
2019-05-03T16:52:31.196Z,1003.43
2019-05-03T16:53:31.186Z,1003.43
2019-05-03T16:54:31.297Z,1003.44
2019-05-03T16:55:31.251Z,1003.45
2019-05-03T16:56:31.183Z,1003.44
2019-05-03T16:57:31.214Z,1003.44
2019-05-03T16:58:31.227Z,1003.48
2019-05-03T16:59:32.192Z,1003.43
2019-05-03T17:00:31.229Z,1003.50
2019-05-03T17:01:31.251Z,1003.43
2019-05-03T17:02:31.284Z,1003.43
2019-05-03T17:03:38.656Z,1003.46
2019-05-03T17:04:31.264Z,1003.51
2019-05-03T17:05:31.419Z,1003.46
2019-05-03T17:06:31.314Z,1003.38
2019-05-03T17:07:31.304Z,1003.37
2019-05-03T17:08:31.339Z,1003.36
2019-05-03T17:09:31.277Z,1003.48
2019-05-03T17:10:31.358Z,1003.47
2019-05-03T17:11:31.330Z,1003.47
2019-05-03T17:12:31.352Z,1003.49
2019-05-03T17:13:31.334Z,1003.44
2019-05-03T17:14:31.364Z,1003.40
2019-05-03T17:15:31.593Z,1003.44
2019-05-03T17:16:31.379Z,1003.37
2019-05-03T17:17:31.366Z,1003.40
2019-05-03T17:18:31.351Z,1003.40
2019-05-03T17:19:31.439Z,1003.39
2019-05-03T17:20:32.154Z,1003.35
2019-05-03T17:21:31.432Z,1003.33
2019-05-03T17:22:31.397Z,1003.36
2019-05-03T17:23:31.652Z,1003.38
2019-05-03T17:24:31.468Z,1003.36
2019-05-03T17:25:31.415Z,1003.36
2019-05-03T17:26:31.424Z,1003.36
2019-05-03T17:27:31.481Z,1003.34
2019-05-03T17:28:31.501Z,1003.30
2019-05-03T17:29:31.424Z,1003.38